Time;durP1;ratioP1;P1;durP2;ratioP2;P2;SDS_P1;SDS_P2;PMS_P1;PMS_P2;Temp;Humidity;BMP_temperature;BMP_pressure;BME280_temperature;BME280_humidity;BME280_pressure;Samples;Min_cycle;Max_cycle;Signal;HPM_P1;HPM_P2
2023/08/18 00:01:41;;;;;;;6.93;6.28;;;;;;;;;;5039219;28;20500;-64
2023/08/18 00:04:07;;;;;;;7.25;5.47;;;;;;;;;;5039191;28;20115;-61
2023/08/18 00:06:33;;;;;;;7.20;6.18;;;;;;;;;;5040371;28;20136;-60
2023/08/18 00:09:00;;;;;;;8.20;6.30;;;;;;;;;;5041735;28;20144;-63
2023/08/18 00:11:26;;;;;;;7.55;6.40;;;;;;;;;;5040588;28;20574;-61
2023/08/18 00:13:53;;;;;;;6.57;5.97;;;;;;;;;;5033554;28;20045;-61
2023/08/18 00:16:19;;;;;;;7.82;6.28;;;;;;;;;;5038372;28;20140;-63
2023/08/18 00:18:46;;;;;;;7.38;6.47;;;;;;;;;;5041886;28;20045;-61
2023/08/18 00:21:12;;;;;;;6.88;6.18;;;;;;;;;;5041466;28;20053;-61
2023/08/18 00:23:39;;;;;;;7.55;6.60;;;;;;;;;;5038041;28;20053;-63
2023/08/18 00:26:08;;;;;;;8.65;6.88;;;;;;;;;;5032443;28;20089;-64
2023/08/18 00:28:35;;;;;;;7.75;6.95;;;;;;;;;;5028990;28;20556;-62
2023/08/18 00:31:02;;;;;;;7.20;6.50;;;;;;;;;;5024753;28;20104;-63
2023/08/18 00:33:28;;;;;;;7.35;6.50;;;;;;;;;;5041205;28;20535;-64
2023/08/18 00:35:55;;;;;;;8.35;6.85;;;;;;;;;;5041659;28;20482;-61
2023/08/18 00:38:21;;;;;;;7.93;7.13;;;;;;;;;;5036413;28;20081;-63
2023/08/18 00:40:47;;;;;;;8.40;6.55;;;;;;;;;;5041089;28;20057;-62
2023/08/18 00:43:14;;;;;;;8.13;7.00;;;;;;;;;;5037276;28;20085;-61
2023/08/18 00:45:40;;;;;;;7.88;7.07;;;;;;;;;;5044424;28;20136;-63
2023/08/18 00:48:07;;;;;;;10.55;6.95;;;;;;;;;;5034483;28;20326;-64
2023/08/18 00:50:34;;;;;;;8.45;7.57;;;;;;;;;;5040728;28;20057;-63
2023/08/18 00:53:00;;;;;;;9.02;6.43;;;;;;;;;;5041109;28;20073;-60
2023/08/18 00:55:27;;;;;;;7.68;6.75;;;;;;;;;;5040102;28;20496;-63
2023/08/18 00:57:57;;;;;;;7.38;6.68;;;;;;;;;;5037073;28;20131;-64
2023/08/18 01:00:24;;;;;;;8.07;7.28;;;;;;;;;;5027654;28;20086;-64
2023/08/18 01:02:50;;;;;;;8.35;7.03;;;;;;;;;;5036470;28;20061;-60
2023/08/18 01:05:18;;;;;;;9.02;7.03;;;;;;;;;;5030935;28;20053;-60
2023/08/18 01:07:45;;;;;;;8.10;6.53;;;;;;;;;;5038086;28;20053;-63
2023/08/18 01:10:11;;;;;;;9.10;7.13;;;;;;;;;;5040512;28;20539;-64
2023/08/18 01:12:38;;;;;;;7.68;6.85;;;;;;;;;;5037434;28;20049;-64
2023/08/18 01:15:23;;;;;;;7.75;6.57;;;;;;;;;;5057051;28;20561;-63
2023/08/18 01:17:58;;;;;;;8.70;6.82;;;;;;;;;;5031605;28;20064;-61
2023/08/18 01:20:26;;;;;;;8.95;7.32;;;;;;;;;;5034855;28;20167;-60
2023/08/18 01:22:56;;;;;;;9.07;7.55;;;;;;;;;;5037074;28;20100;-63
2023/08/18 01:25:23;;;;;;;9.35;7.10;;;;;;;;;;5030683;28;20599;-63
2023/08/18 01:27:50;;;;;;;7.15;6.13;;;;;;;;;;5040629;28;20492;-64
2023/08/18 01:30:17;;;;;;;7.57;6.55;;;;;;;;;;5038825;28;20085;-63
2023/08/18 01:32:51;;;;;;;10.38;7.07;;;;;;;;;;5039377;28;20049;-64
2023/08/18 01:35:18;;;;;;;7.13;6.43;;;;;;;;;;5036151;28;20050;-63
2023/08/18 01:37:46;;;;;;;8.18;6.57;;;;;;;;;;5041154;28;20053;-63
2023/08/18 01:40:14;;;;;;;8.93;6.32;;;;;;;;;;5033483;28;20062;-61
2023/08/18 01:42:41;;;;;;;7.05;5.68;;;;;;;;;;5040025;28;20511;-63
2023/08/18 01:45:11;;;;;;;8.45;6.55;;;;;;;;;;5039158;28;20049;-61
2023/08/18 01:47:38;;;;;;;8.48;6.55;;;;;;;;;;5032100;28;20061;-64
2023/08/18 01:50:05;;;;;;;10.65;6.88;;;;;;;;;;5032820;28;20108;-63
2023/08/18 01:52:31;;;;;;;7.20;6.30;;;;;;;;;;5037506;28;20077;-62
2023/08/18 01:54:57;;;;;;;8.02;6.18;;;;;;;;;;5032421;28;20054;-63
2023/08/18 01:57:24;;;;;;;7.75;6.45;;;;;;;;;;5037935;28;20127;-64
2023/08/18 01:59:50;;;;;;;6.10;5.50;;;;;;;;;;5041317;28;20161;-63
2023/08/18 02:02:17;;;;;;;8.40;6.18;;;;;;;;;;5039981;28;20063;-58
2023/08/18 02:04:43;;;;;;;8.45;6.30;;;;;;;;;;5034803;28;20050;-59
2023/08/18 02:07:10;;;;;;;6.93;5.88;;;;;;;;;;5031975;28;20084;-61
2023/08/18 02:09:37;;;;;;;7.80;6.00;;;;;;;;;;5030271;28;20145;-63
2023/08/18 02:12:03;;;;;;;6.45;5.82;;;;;;;;;;5043380;28;20061;-63
2023/08/18 02:14:30;;;;;;;7.18;5.97;;;;;;;;;;5043212;28;20093;-58
2023/08/18 02:16:57;;;;;;;9.05;6.05;;;;;;;;;;5036845;28;20058;-62
2023/08/18 02:19:23;;;;;;;6.18;5.57;;;;;;;;;;5042488;28;20046;-61
2023/08/18 02:21:49;;;;;;;6.63;5.88;;;;;;;;;;5043667;28;20053;-63
2023/08/18 02:24:16;;;;;;;8.85;5.70;;;;;;;;;;5036195;28;20128;-64
2023/08/18 02:26:42;;;;;;;6.53;5.63;;;;;;;;;;5034423;28;20112;-61
2023/08/18 02:29:08;;;;;;;7.32;6.28;;;;;;;;;;5039396;28;20056;-62
2023/08/18 02:31:36;;;;;;;9.18;6.43;;;;;;;;;;5027332;28;20053;-61
2023/08/18 02:34:03;;;;;;;6.97;5.80;;;;;;;;;;5035409;28;20057;-63
2023/08/18 02:36:29;;;;;;;7.00;6.13;;;;;;;;;;5038307;28;20061;-61
2023/08/18 02:38:56;;;;;;;8.20;6.50;;;;;;;;;;5042062;28;20115;-64
2023/08/18 02:41:24;;;;;;;9.18;6.20;;;;;;;;;;5041898;28;20057;-65
2023/08/18 02:43:50;;;;;;;9.18;6.35;;;;;;;;;;5034133;28;20057;-62
2023/08/18 02:46:17;;;;;;;7.88;6.53;;;;;;;;;;5042139;28;20123;-63
2023/08/18 02:48:44;;;;;;;9.95;7.20;;;;;;;;;;5029322;28;20682;-64
2023/08/18 02:51:10;;;;;;;8.23;6.43;;;;;;;;;;5039530;28;20060;-62
2023/08/18 02:53:39;;;;;;;8.07;6.70;;;;;;;;;;5039616;28;20463;-63
2023/08/18 02:56:06;;;;;;;8.82;6.55;;;;;;;;;;5043018;28;20058;-65
2023/08/18 02:58:33;;;;;;;8.32;6.38;;;;;;;;;;5042784;28;20220;-61
2023/08/18 03:01:01;;;;;;;12.30;7.00;;;;;;;;;;5039656;28;20104;-62
2023/08/18 03:03:27;;;;;;;7.50;6.70;;;;;;;;;;5039410;28;20526;-62
2023/08/18 03:05:58;;;;;;;10.05;7.03;;;;;;;;;;5042704;28;20050;-62
2023/08/18 03:08:24;;;;;;;10.40;6.68;;;;;;;;;;5042437;28;20578;-62
2023/08/18 03:10:58;;;;;;;7.95;6.32;;;;;;;;;;5042572;28;20054;-63
2023/08/18 03:13:25;;;;;;;8.27;6.55;;;;;;;;;;5034409;28;20702;-63
2023/08/18 03:15:51;;;;;;;10.63;7.10;;;;;;;;;;5032544;28;20084;-59
2023/08/18 03:18:18;;;;;;;10.45;6.40;;;;;;;;;;5037732;28;20050;-63
2023/08/18 03:20:48;;;;;;;10.13;6.85;;;;;;;;;;5041234;28;20145;-62
2023/08/18 03:23:15;;;;;;;8.88;6.80;;;;;;;;;;5056539;28;20559;-64
2023/08/18 03:25:43;;;;;;;9.77;5.93;;;;;;;;;;5039677;28;20049;-62
2023/08/18 03:28:10;;;;;;;8.45;6.15;;;;;;;;;;5039479;28;20140;-64
2023/08/18 03:30:39;;;;;;;10.00;6.63;;;;;;;;;;5037743;28;20061;-63
2023/08/18 03:33:06;;;;;;;7.88;6.18;;;;;;;;;;5031651;28;20140;-63
2023/08/18 03:35:35;;;;;;;10.38;6.70;;;;;;;;;;5032034;28;20451;-63
2023/08/18 03:38:02;;;;;;;9.10;6.30;;;;;;;;;;5045317;28;20501;-63
2023/08/18 03:40:28;;;;;;;9.02;6.32;;;;;;;;;;5056385;28;20051;-63
2023/08/18 03:42:55;;;;;;;9.02;6.40;;;;;;;;;;5044798;28;20504;-63
2023/08/18 03:45:21;;;;;;;9.77;6.95;;;;;;;;;;5038636;28;20535;-64
2023/08/18 03:47:48;;;;;;;9.60;6.88;;;;;;;;;;5041843;28;20057;-60
2023/08/18 03:50:14;;;;;;;8.65;7.35;;;;;;;;;;5034021;28;20148;-63
2023/08/18 03:52:41;;;;;;;8.90;6.60;;;;;;;;;;5036219;28;20053;-62
2023/08/18 03:55:09;;;;;;;12.48;7.43;;;;;;;;;;5036467;28;20127;-61
2023/08/18 03:57:35;;;;;;;8.80;7.15;;;;;;;;;;5042388;28;20089;-60
2023/08/18 04:00:03;;;;;;;7.63;6.38;;;;;;;;;;5041753;28;20290;-62
2023/08/18 04:02:29;;;;;;;10.45;7.18;;;;;;;;;;5048051;28;20057;-61
2023/08/18 04:04:56;;;;;;;8.77;6.85;;;;;;;;;;5041340;28;20053;-63
2023/08/18 04:07:24;;;;;;;11.43;7.55;;;;;;;;;;5046672;28;20578;-64
2023/08/18 04:09:50;;;;;;;10.13;7.75;;;;;;;;;;5038831;28;20243;-64
2023/08/18 04:12:17;;;;;;;12.68;7.63;;;;;;;;;;5041046;28;20119;-59
2023/08/18 04:14:43;;;;;;;9.75;7.65;;;;;;;;;;5039095;28;20527;-63
2023/08/18 04:17:10;;;;;;;10.90;7.80;;;;;;;;;;5039211;28;20056;-63
2023/08/18 04:19:36;;;;;;;9.82;7.57;;;;;;;;;;5031246;28;20061;-57
2023/08/18 04:22:03;;;;;;;9.55;7.93;;;;;;;;;;5041475;28;20504;-63
2023/08/18 04:24:29;;;;;;;11.85;8.23;;;;;;;;;;5032047;28;20057;-64
2023/08/18 04:26:59;;;;;;;9.20;7.72;;;;;;;;;;5029893;28;20527;-63
2023/08/18 04:29:26;;;;;;;10.63;8.30;;;;;;;;;;5053317;28;20505;-60
2023/08/18 04:31:52;;;;;;;11.73;8.88;;;;;;;;;;5034586;28;20054;-63
2023/08/18 04:34:19;;;;;;;12.73;9.30;;;;;;;;;;5032803;28;20061;-63
2023/08/18 04:36:45;;;;;;;14.73;9.13;;;;;;;;;;5032898;28;20059;-59
2023/08/18 04:39:11;;;;;;;13.32;9.43;;;;;;;;;;5032347;28;20111;-63
2023/08/18 04:41:38;;;;;;;12.38;10.23;;;;;;;;;;5037923;28;20115;-62
2023/08/18 04:44:05;;;;;;;12.18;10.10;;;;;;;;;;5041592;28;20077;-60
2023/08/18 04:46:31;;;;;;;13.10;9.45;;;;;;;;;;5041283;28;20081;-63
2023/08/18 04:48:58;;;;;;;12.80;9.57;;;;;;;;;;5038377;28;20053;-61
2023/08/18 04:51:24;;;;;;;13.40;9.95;;;;;;;;;;5040554;28;20533;-62
2023/08/18 04:53:50;;;;;;;15.25;10.52;;;;;;;;;;5039886;28;20144;-62
2023/08/18 04:56:17;;;;;;;13.45;10.27;;;;;;;;;;5038864;28;20483;-63
2023/08/18 04:58:44;;;;;;;13.57;10.27;;;;;;;;;;5048216;28;20141;-63
2023/08/18 05:01:10;;;;;;;12.63;9.85;;;;;;;;;;5040156;28;20058;-61
2023/08/18 05:03:37;;;;;;;14.13;9.90;;;;;;;;;;5042130;28;20049;-63
2023/08/18 05:06:12;;;;;;;14.18;10.68;;;;;;;;;;5041590;28;20061;-63
2023/08/18 05:08:40;;;;;;;15.35;11.30;;;;;;;;;;5041613;28;20574;-62
2023/08/18 05:11:08;;;;;;;12.70;10.80;;;;;;;;;;5032249;28;20054;-63
2023/08/18 05:13:36;;;;;;;14.77;11.75;;;;;;;;;;5041871;28;20092;-59
2023/08/18 05:16:03;;;;;;;14.05;11.30;;;;;;;;;;5040899;28;20611;-63
2023/08/18 05:18:30;;;;;;;18.20;13.00;;;;;;;;;;5040915;28;20588;-63
2023/08/18 05:20:57;;;;;;;15.38;11.80;;;;;;;;;;5037599;28;20061;-63
2023/08/18 05:23:24;;;;;;;17.10;11.63;;;;;;;;;;5039363;28;20131;-64
2023/08/18 05:25:54;;;;;;;16.52;11.50;;;;;;;;;;5040673;28;20148;-62
2023/08/18 05:28:21;;;;;;;15.27;11.77;;;;;;;;;;5033772;28;20077;-63
2023/08/18 05:30:48;;;;;;;13.48;11.52;;;;;;;;;;5036678;28;20050;-61
2023/08/18 05:33:14;;;;;;;14.95;12.52;;;;;;;;;;5034925;28;20144;-61
2023/08/18 05:35:41;;;;;;;19.33;12.98;;;;;;;;;;5021467;28;20089;-65
2023/08/18 05:38:10;;;;;;;18.30;12.77;;;;;;;;;;5041709;28;20060;-64
2023/08/18 05:40:43;;;;;;;16.63;11.52;;;;;;;;;;5042075;28;20054;-64
2023/08/18 05:43:11;;;;;;;17.50;13.10;;;;;;;;;;5028475;28;20112;-63
2023/08/18 05:45:38;;;;;;;16.20;12.85;;;;;;;;;;5032304;28;20092;-64
2023/08/18 05:48:04;;;;;;;17.27;13.20;;;;;;;;;;5048705;28;20538;-61
2023/08/18 05:50:32;;;;;;;15.85;12.77;;;;;;;;;;5043435;28;20053;-60
2023/08/18 05:52:58;;;;;;;18.08;13.05;;;;;;;;;;5044108;28;20080;-64
2023/08/18 05:55:25;;;;;;;19.08;13.32;;;;;;;;;;5043271;28;20049;-61
2023/08/18 05:57:52;;;;;;;18.60;13.77;;;;;;;;;;5043316;28;20527;-63
2023/08/18 06:00:18;;;;;;;17.30;13.32;;;;;;;;;;5041379;28;20124;-62
2023/08/18 06:02:45;;;;;;;17.50;12.55;;;;;;;;;;5036353;28;20152;-64
2023/08/18 06:05:13;;;;;;;14.20;12.10;;;;;;;;;;5049242;28;20077;-64
2023/08/18 06:07:42;;;;;;;16.00;13.27;;;;;;;;;;5039227;28;20528;-62
2023/08/18 06:10:11;;;;;;;19.27;12.30;;;;;;;;;;5058571;28;20140;-62
2023/08/18 06:12:38;;;;;;;17.77;13.18;;;;;;;;;;5043067;28;20061;-63
2023/08/18 06:15:05;;;;;;;21.90;12.88;;;;;;;;;;5044410;28;20061;-62
2023/08/18 06:17:32;;;;;;;19.58;13.70;;;;;;;;;;5043847;28;20054;-63
2023/08/18 06:19:59;;;;;;;17.27;12.05;;;;;;;;;;5038601;28;20054;-64
2023/08/18 06:22:25;;;;;;;22.15;12.82;;;;;;;;;;5042572;28;20626;-63
2023/08/18 06:24:52;;;;;;;17.48;12.10;;;;;;;;;;5045398;28;20503;-63
2023/08/18 06:27:18;;;;;;;14.25;12.10;;;;;;;;;;5043063;28;20520;-60
2023/08/18 06:29:44;;;;;;;16.75;12.00;;;;;;;;;;5039982;28;20169;-63
2023/08/18 06:32:11;;;;;;;14.82;11.88;;;;;;;;;;5040508;28;20049;-65
2023/08/18 06:34:37;;;;;;;16.38;12.57;;;;;;;;;;5042286;28;20330;-62
2023/08/18 06:37:04;;;;;;;16.20;11.32;;;;;;;;;;5043059;28;20054;-63
2023/08/18 06:39:30;;;;;;;23.67;12.38;;;;;;;;;;5043707;28;20057;-63
2023/08/18 06:41:57;;;;;;;16.30;12.02;;;;;;;;;;5041260;28;20053;-60
2023/08/18 06:44:23;;;;;;;14.23;11.85;;;;;;;;;;5039411;28;20045;-65
2023/08/18 06:46:49;;;;;;;16.45;12.05;;;;;;;;;;5042019;28;20535;-57
2023/08/18 06:49:16;;;;;;;14.90;11.02;;;;;;;;;;5039749;28;20362;-64
2023/08/18 06:51:42;;;;;;;17.88;11.98;;;;;;;;;;5052966;28;20057;-60
2023/08/18 06:54:09;;;;;;;19.80;11.40;;;;;;;;;;5045827;28;20096;-62
2023/08/18 06:56:35;;;;;;;15.70;11.43;;;;;;;;;;5042437;28;20144;-61
2023/08/18 06:59:02;;;;;;;17.73;11.70;;;;;;;;;;5041221;28;20152;-61
2023/08/18 07:01:30;;;;;;;15.48;11.68;;;;;;;;;;5040866;28;20551;-59
2023/08/18 07:03:56;;;;;;;13.20;10.02;;;;;;;;;;5039975;28;20591;-63
2023/08/18 07:06:22;;;;;;;15.65;11.43;;;;;;;;;;5043487;28;20125;-58
2023/08/18 07:08:49;;;;;;;16.90;10.10;;;;;;;;;;5040192;28;20083;-63
2023/08/18 07:11:15;;;;;;;17.80;11.55;;;;;;;;;;5043557;28;20060;-55
2023/08/18 07:13:42;;;;;;;18.13;10.65;;;;;;;;;;5033558;28;20131;-61
2023/08/18 07:16:09;;;;;;;13.68;10.35;;;;;;;;;;5053422;28;20074;-62
2023/08/18 07:18:35;;;;;;;15.52;11.18;;;;;;;;;;5034838;28;20049;-59
2023/08/18 07:21:02;;;;;;;15.70;11.07;;;;;;;;;;5040275;28;20472;-62
2023/08/18 07:23:29;;;;;;;16.00;10.20;;;;;;;;;;5041221;28;20103;-62
2023/08/18 07:25:55;;;;;;;12.95;10.38;;;;;;;;;;5042540;28;20119;-63
2023/08/18 07:28:22;;;;;;;16.90;11.00;;;;;;;;;;5041994;28;21099;-63
2023/08/18 07:30:48;;;;;;;16.85;10.48;;;;;;;;;;5040522;28;20064;-63
2023/08/18 07:33:15;;;;;;;14.05;10.77;;;;;;;;;;5025804;28;21015;-63
2023/08/18 07:35:41;;;;;;;17.90;10.35;;;;;;;;;;5041537;28;20523;-63
2023/08/18 07:38:08;;;;;;;14.55;10.60;;;;;;;;;;5042183;28;20085;-63
2023/08/18 07:40:34;;;;;;;12.63;10.18;;;;;;;;;;5041965;28;20131;-61
2023/08/18 07:43:01;;;;;;;14.35;10.23;;;;;;;;;;5042780;28;20049;-61
2023/08/18 07:45:27;;;;;;;13.32;10.68;;;;;;;;;;5041728;28;20141;-63
2023/08/18 07:47:53;;;;;;;14.23;10.38;;;;;;;;;;5039520;28;20480;-62
2023/08/18 07:50:20;;;;;;;13.63;10.82;;;;;;;;;;5040170;28;20140;-63
2023/08/18 07:52:46;;;;;;;14.82;10.90;;;;;;;;;;5042562;28;20136;-59
2023/08/18 07:55:13;;;;;;;13.95;10.75;;;;;;;;;;5041054;28;20565;-64
2023/08/18 07:57:39;;;;;;;18.83;12.23;;;;;;;;;;5037448;28;20636;-63
2023/08/18 08:00:14;;;;;;;13.73;10.80;;;;;;;;;;5041955;28;20510;-61
2023/08/18 08:02:41;;;;;;;16.70;11.32;;;;;;;;;;5036546;28;20516;-60
2023/08/18 08:05:07;;;;;;;17.45;11.45;;;;;;;;;;5040324;28;20065;-60
2023/08/18 08:07:34;;;;;;;17.45;11.20;;;;;;;;;;5036836;28;20053;-63
2023/08/18 08:10:04;;;;;;;17.25;11.75;;;;;;;;;;5041957;28;20504;-63
2023/08/18 08:12:31;;;;;;;15.23;11.30;;;;;;;;;;5041182;28;20045;-62
2023/08/18 08:14:58;;;;;;;16.33;11.43;;;;;;;;;;5037723;28;20117;-63
2023/08/18 08:17:24;;;;;;;16.65;10.25;;;;;;;;;;5043084;28;20054;-60
2023/08/18 08:19:51;;;;;;;13.23;10.90;;;;;;;;;;5042291;28;20053;-60
2023/08/18 08:22:17;;;;;;;14.30;10.82;;;;;;;;;;5046993;28;20134;-62
2023/08/18 08:24:44;;;;;;;18.33;10.75;;;;;;;;;;5038014;28;20061;-63
2023/08/18 08:27:10;;;;;;;18.13;11.20;;;;;;;;;;5041899;28;20064;-61
2023/08/18 08:29:37;;;;;;;15.32;11.02;;;;;;;;;;5046384;28;20161;-63
2023/08/18 08:32:03;;;;;;;14.02;9.57;;;;;;;;;;5044123;28;20115;-58
2023/08/18 08:34:38;;;;;;;18.80;11.95;;;;;;;;;;5043253;28;20398;-59
2023/08/18 08:37:04;;;;;;;13.52;10.52;;;;;;;;;;5032824;28;20504;-60
2023/08/18 08:39:30;;;;;;;15.80;10.95;;;;;;;;;;5036777;28;20539;-62
2023/08/18 08:41:57;;;;;;;14.80;9.70;;;;;;;;;;5036172;28;20060;-63
2023/08/18 08:44:24;;;;;;;14.70;11.52;;;;;;;;;;5039887;28;20134;-63
2023/08/18 08:46:51;;;;;;;17.25;11.40;;;;;;;;;;5039613;28;20284;-63
2023/08/18 08:49:19;;;;;;;15.00;10.75;;;;;;;;;;5041639;28;20535;-59
2023/08/18 08:51:55;;;;;;;17.20;11.02;;;;;;;;;;5040367;28;20061;-62
2023/08/18 08:54:22;;;;;;;16.17;10.77;;;;;;;;;;5039095;28;20058;-63
2023/08/18 08:56:49;;;;;;;18.38;11.52;;;;;;;;;;5033264;28;20089;-62
2023/08/18 08:59:15;;;;;;;17.38;11.23;;;;;;;;;;5030982;28;20452;-62
2023/08/18 09:01:44;;;;;;;18.75;10.95;;;;;;;;;;5038278;28;20058;-63
2023/08/18 09:04:11;;;;;;;18.55;11.38;;;;;;;;;;5066067;28;20053;-63
2023/08/18 09:06:38;;;;;;;17.27;11.63;;;;;;;;;;5039128;28;20500;-61
2023/08/18 09:09:09;;;;;;;17.10;11.73;;;;;;;;;;5037968;28;20081;-64
2023/08/18 09:11:39;;;;;;;16.92;10.95;;;;;;;;;;5040267;28;20063;-58
2023/08/18 09:14:06;;;;;;;16.10;11.45;;;;;;;;;;5075038;28;20057;-62
2023/08/18 09:16:32;;;;;;;14.55;10.45;;;;;;;;;;5043125;28;20081;-65
2023/08/18 09:19:00;;;;;;;17.35;11.38;;;;;;;;;;5042951;28;20088;-61
2023/08/18 09:21:27;;;;;;;21.45;12.25;;;;;;;;;;5043816;28;20445;-64
2023/08/18 09:23:56;;;;;;;15.68;11.13;;;;;;;;;;5044188;28;20132;-64
2023/08/18 09:26:24;;;;;;;14.40;11.02;;;;;;;;;;5042202;28;20511;-58
2023/08/18 09:28:50;;;;;;;18.65;11.80;;;;;;;;;;5048376;28;20057;-63
2023/08/18 09:31:20;;;;;;;18.20;11.98;;;;;;;;;;5048204;28;20531;-61
2023/08/18 09:33:46;;;;;;;15.50;11.52;;;;;;;;;;5045194;28;20322;-63
2023/08/18 09:36:14;;;;;;;17.30;11.07;;;;;;;;;;5043241;28;20053;-63
2023/08/18 09:38:40;;;;;;;14.80;10.52;;;;;;;;;;5043344;28;20084;-63
2023/08/18 09:41:11;;;;;;;16.65;11.27;;;;;;;;;;5042903;28;20053;-60
2023/08/18 09:43:37;;;;;;;13.57;10.27;;;;;;;;;;5040916;28;20167;-63
2023/08/18 09:46:05;;;;;;;16.77;11.05;;;;;;;;;;5044347;28;20068;-63
2023/08/18 09:48:34;;;;;;;14.85;10.98;;;;;;;;;;5043808;28;20524;-61
2023/08/18 09:51:01;;;;;;;20.23;12.98;;;;;;;;;;5043717;28;20108;-64
2023/08/18 09:53:31;;;;;;;17.55;11.52;;;;;;;;;;5045612;28;20136;-62
2023/08/18 09:56:00;;;;;;;14.48;9.73;;;;;;;;;;5043928;28;20080;-61
2023/08/18 09:58:29;;;;;;;15.90;10.32;;;;;;;;;;5040514;28;20049;-63
2023/08/18 10:00:56;;;;;;;16.73;10.05;;;;;;;;;;5039763;28;20512;-63
2023/08/18 10:03:26;;;;;;;16.88;11.05;;;;;;;;;;5049905;28;20530;-63
2023/08/18 10:05:53;;;;;;;14.68;9.98;;;;;;;;;;5039962;28;20057;-63
2023/08/18 10:08:21;;;;;;;15.18;9.85;;;;;;;;;;5043875;28;20089;-64
2023/08/18 10:10:48;;;;;;;13.93;9.80;;;;;;;;;;5042601;28;20071;-61
2023/08/18 10:13:15;;;;;;;13.07;8.77;;;;;;;;;;5046361;28;20543;-64
2023/08/18 10:15:42;;;;;;;13.13;8.88;;;;;;;;;;5043079;28;20052;-65
2023/08/18 10:18:09;;;;;;;12.80;8.88;;;;;;;;;;5059624;28;20556;-61
2023/08/18 10:20:36;;;;;;;11.48;9.05;;;;;;;;;;5043466;28;20058;-61
2023/08/18 10:23:02;;;;;;;12.95;9.82;;;;;;;;;;5030332;28;20505;-65
2023/08/18 10:25:30;;;;;;;13.77;9.88;;;;;;;;;;5039665;28;20547;-64
2023/08/18 10:27:57;;;;;;;12.55;9.70;;;;;;;;;;5043616;28;20542;-62
2023/08/18 10:30:24;;;;;;;13.27;9.48;;;;;;;;;;5042684;28;20222;-63
2023/08/18 10:32:51;;;;;;;13.07;8.90;;;;;;;;;;5043743;28;20103;-63
2023/08/18 10:35:22;;;;;;;10.95;8.70;;;;;;;;;;5042822;28;20508;-61
2023/08/18 10:37:56;;;;;;;13.15;8.82;;;;;;;;;;5039875;28;20831;-63
2023/08/18 10:40:29;;;;;;;11.35;8.55;;;;;;;;;;5027669;28;20056;-64
2023/08/18 10:43:02;;;;;;;16.30;8.48;;;;;;;;;;5040126;28;20787;-64
2023/08/18 10:45:29;;;;;;;14.73;9.95;;;;;;;;;;5074620;28;20049;-65
2023/08/18 10:47:59;;;;;;;10.57;8.25;;;;;;;;;;5043179;28;20582;-64
2023/08/18 10:50:27;;;;;;;12.15;8.60;;;;;;;;;;5043266;28;20065;-64
2023/08/18 10:52:55;;;;;;;11.65;8.95;;;;;;;;;;5042281;28;20496;-64
2023/08/18 10:55:22;;;;;;;12.23;8.88;;;;;;;;;;5039726;28;20132;-62
2023/08/18 10:57:48;;;;;;;11.38;9.23;;;;;;;;;;5053760;28;20638;-64
2023/08/18 11:00:17;;;;;;;12.13;8.55;;;;;;;;;;5038241;28;20084;-60
2023/08/18 11:02:45;;;;;;;13.07;9.55;;;;;;;;;;5044396;28;20104;-63
2023/08/18 11:05:12;;;;;;;11.88;8.38;;;;;;;;;;5041330;28;20064;-60
2023/08/18 11:07:39;;;;;;;11.13;8.77;;;;;;;;;;5037698;28;20052;-63
2023/08/18 11:10:13;;;;;;;13.38;9.25;;;;;;;;;;5042562;28;20557;-60
2023/08/18 11:12:41;;;;;;;11.38;9.15;;;;;;;;;;5042559;28;20060;-65
2023/08/18 11:15:08;;;;;;;12.00;9.70;;;;;;;;;;5042646;28;20149;-65
2023/08/18 11:17:34;;;;;;;13.48;8.50;;;;;;;;;;5042121;28;20053;-62
2023/08/18 11:20:01;;;;;;;15.32;9.20;;;;;;;;;;5042798;28;20500;-63
2023/08/18 11:22:28;;;;;;;12.38;8.43;;;;;;;;;;5041923;28;20512;-64
2023/08/18 11:24:55;;;;;;;11.68;9.18;;;;;;;;;;5042519;28;20693;-63
2023/08/18 11:27:22;;;;;;;10.60;7.97;;;;;;;;;;5034514;28;20058;-63
2023/08/18 11:29:48;;;;;;;9.63;8.63;;;;;;;;;;5044522;28;20131;-62
2023/08/18 11:32:14;;;;;;;11.38;9.82;;;;;;;;;;5041405;28;20111;-65
2023/08/18 11:34:41;;;;;;;10.50;8.82;;;;;;;;;;5031028;28;20547;-65
2023/08/18 11:37:10;;;;;;;11.65;8.60;;;;;;;;;;5041358;28;20089;-64
2023/08/18 11:39:37;;;;;;;9.82;7.65;;;;;;;;;;5040940;28;20746;-64
2023/08/18 11:42:04;;;;;;;10.43;9.32;;;;;;;;;;5031939;28;20054;-63
2023/08/18 11:44:32;;;;;;;10.63;8.40;;;;;;;;;;5027523;28;20057;-62
2023/08/18 11:46:59;;;;;;;11.07;8.77;;;;;;;;;;5036816;28;20137;-62
2023/08/18 11:49:26;;;;;;;9.82;8.27;;;;;;;;;;5052229;28;20046;-59
2023/08/18 11:51:59;;;;;;;11.52;7.63;;;;;;;;;;5042861;28;20058;-64
2023/08/18 11:54:28;;;;;;;11.80;8.98;;;;;;;;;;5025725;28;20053;-63
2023/08/18 11:56:55;;;;;;;11.02;8.40;;;;;;;;;;5042760;28;20100;-61
2023/08/18 11:59:22;;;;;;;11.25;9.25;;;;;;;;;;5041667;28;20391;-65
2023/08/18 12:01:56;;;;;;;12.25;8.93;;;;;;;;;;5040520;28;20088;-62
2023/08/18 12:04:26;;;;;;;9.93;8.90;;;;;;;;;;5032956;28;20139;-62
2023/08/18 12:06:52;;;;;;;10.50;8.32;;;;;;;;;;5041294;28;20379;-65
2023/08/18 12:09:19;;;;;;;11.30;8.77;;;;;;;;;;5041637;28;20050;-64
2023/08/18 12:11:46;;;;;;;11.65;8.70;;;;;;;;;;5043458;28;20597;-62
2023/08/18 12:14:13;;;;;;;10.48;7.78;;;;;;;;;;5050000;28;20531;-63
2023/08/18 12:16:41;;;;;;;10.60;8.52;;;;;;;;;;5040168;28;20053;-62
2023/08/18 12:19:07;;;;;;;9.88;7.93;;;;;;;;;;5041416;28;20575;-64
2023/08/18 12:21:37;;;;;;;10.65;8.02;;;;;;;;;;5040838;28;20053;-65
2023/08/18 12:24:04;;;;;;;7.70;6.75;;;;;;;;;;5041570;28;20590;-65
2023/08/18 12:26:34;;;;;;;9.80;8.55;;;;;;;;;;5038533;28;20140;-64
2023/08/18 12:29:03;;;;;;;8.45;7.63;;;;;;;;;;5041499;28;20049;-62
2023/08/18 12:31:30;;;;;;;8.10;7.20;;;;;;;;;;5042699;28;20080;-61
2023/08/18 12:33:57;;;;;;;12.90;8.23;;;;;;;;;;5041367;28;20063;-64
2023/08/18 12:36:23;;;;;;;12.50;8.93;;;;;;;;;;5040729;28;20140;-62
2023/08/18 12:38:49;;;;;;;7.50;6.70;;;;;;;;;;5041140;28;20132;-64
2023/08/18 12:41:16;;;;;;;7.95;7.10;;;;;;;;;;5040427;28;20064;-65
2023/08/18 12:43:43;;;;;;;6.85;6.18;;;;;;;;;;5041711;28;20053;-64
2023/08/18 12:46:09;;;;;;;7.88;6.20;;;;;;;;;;5045067;28;20610;-63
2023/08/18 12:48:36;;;;;;;8.00;6.97;;;;;;;;;;5040548;28;20540;-64
2023/08/18 12:51:03;;;;;;;7.15;6.45;;;;;;;;;;5041770;28;20056;-65
2023/08/18 12:53:29;;;;;;;10.13;7.78;;;;;;;;;;5039257;28;20527;-64
2023/08/18 12:55:55;;;;;;;10.07;7.93;;;;;;;;;;5034021;28;20054;-66
2023/08/18 12:58:22;;;;;;;6.38;5.78;;;;;;;;;;5027542;28;20566;-64
2023/08/18 13:00:49;;;;;;;7.53;6.32;;;;;;;;;;5038798;28;20169;-65
2023/08/18 13:03:16;;;;;;;6.68;5.75;;;;;;;;;;5042219;28;20510;-61
2023/08/18 13:05:43;;;;;;;5.85;5.32;;;;;;;;;;5040549;28;20508;-64
2023/08/18 13:08:09;;;;;;;6.38;5.72;;;;;;;;;;5040419;28;20147;-61
2023/08/18 13:10:36;;;;;;;4.50;4.10;;;;;;;;;;5040321;28;20061;-62
2023/08/18 13:13:02;;;;;;;5.50;5.00;;;;;;;;;;5032341;28;20053;-60
2023/08/18 13:15:29;;;;;;;9.25;5.22;;;;;;;;;;5045723;28;20080;-60
2023/08/18 13:17:56;;;;;;;8.05;5.63;;;;;;;;;;5043008;28;20108;-65
2023/08/18 13:20:22;;;;;;;7.10;5.82;;;;;;;;;;5026345;28;20494;-61
2023/08/18 13:22:49;;;;;;;6.75;4.90;;;;;;;;;;5025359;28;20065;-63
2023/08/18 13:25:18;;;;;;;7.10;4.47;;;;;;;;;;5033023;28;20064;-61
2023/08/18 13:27:44;;;;;;;5.43;4.53;;;;;;;;;;5041156;28;20074;-64
2023/08/18 13:30:12;;;;;;;5.03;4.53;;;;;;;;;;5043927;28;20057;-61
2023/08/18 13:32:39;;;;;;;4.30;3.95;;;;;;;;;;5034343;28;20050;-64
2023/08/18 13:35:05;;;;;;;7.30;3.63;;;;;;;;;;5040717;28;20061;-61
2023/08/18 13:37:32;;;;;;;3.97;3.55;;;;;;;;;;5041145;28;20132;-66
2023/08/18 13:39:58;;;;;;;8.23;4.38;;;;;;;;;;5037759;28;20104;-65
2023/08/18 13:42:25;;;;;;;3.95;3.65;;;;;;;;;;5040630;28;21035;-61
2023/08/18 13:44:51;;;;;;;5.53;4.93;;;;;;;;;;5040207;28;20108;-64
2023/08/18 13:47:18;;;;;;;6.82;4.18;;;;;;;;;;5039172;28;20060;-62
2023/08/18 13:49:44;;;;;;;5.03;4.57;;;;;;;;;;5033125;28;20077;-65
2023/08/18 13:52:10;;;;;;;4.78;4.38;;;;;;;;;;5040479;28;20053;-65
2023/08/18 13:54:37;;;;;;;7.10;3.95;;;;;;;;;;5040461;28;20587;-61
2023/08/18 13:57:04;;;;;;;5.30;4.50;;;;;;;;;;5040472;28;20054;-64
2023/08/18 13:59:30;;;;;;;5.53;4.10;;;;;;;;;;5047454;28;20060;-40
2023/08/18 14:01:56;;;;;;;3.55;3.25;;;;;;;;;;5055221;28;20462;-60
2023/08/18 14:04:23;;;;;;;4.32;3.92;;;;;;;;;;5030864;28;20208;-61
2023/08/18 14:06:49;;;;;;;3.72;3.40;;;;;;;;;;5043755;28;20054;-62
2023/08/18 14:09:18;;;;;;;3.42;3.13;;;;;;;;;;5043169;28;20151;-63
2023/08/18 14:11:44;;;;;;;7.93;3.47;;;;;;;;;;5036093;28;20057;-59
2023/08/18 14:14:11;;;;;;;4.50;2.83;;;;;;;;;;5040798;28;20172;-62
2023/08/18 14:16:37;;;;;;;3.78;3.45;;;;;;;;;;5043648;28;20049;-57
2023/08/18 14:19:04;;;;;;;3.83;3.42;;;;;;;;;;5043891;28;20053;-63
2023/08/18 14:21:31;;;;;;;4.57;3.85;;;;;;;;;;5043170;28;20049;-62
2023/08/18 14:23:57;;;;;;;4.18;3.70;;;;;;;;;;5039988;28;20141;-59
2023/08/18 14:26:23;;;;;;;7.82;3.35;;;;;;;;;;5047470;28;20546;-62
2023/08/18 14:28:50;;;;;;;3.92;3.20;;;;;;;;;;5044208;28;20061;-60
2023/08/18 14:31:17;;;;;;;4.97;3.50;;;;;;;;;;5042189;28;20571;-59